Time;durP1;ratioP1;P1;durP2;ratioP2;P2;SDS_P1;SDS_P2;PMS_P1;PMS_P2;Temp;Humidity;BMP_temperature;BMP_pressure;BME280_temperature;BME280_humidity;BME280_pressure;Samples;Min_cycle;Max_cycle;Signal;HPM_P1;HPM_P2
2021/07/19 00:01:55;;;;;;;10.90;5.17;;;;;;;16.36;69.94;101127.08;1688930;83;21008;-82
2021/07/19 00:04:24;;;;;;;11.15;4.90;;;;;;;16.32;70.03;101127.48;1690990;83;21026;-82
2021/07/19 00:06:51;;;;;;;13.38;4.85;;;;;;;16.31;70.04;101131.45;1687200;83;21832;-82
2021/07/19 00:09:18;;;;;;;12.18;4.42;;;;;;;16.29;70.11;101134.55;1688666;83;21500;-82
2021/07/19 00:11:44;;;;;;;8.38;4.60;;;;;;;16.26;70.12;101135.42;1683958;84;21023;-81
2021/07/19 00:14:11;;;;;;;8.95;4.78;;;;;;;16.23;70.19;101134.06;1683607;83;21143;-81
2021/07/19 00:16:38;;;;;;;12.90;5.00;;;;;;;16.22;70.31;101137.61;1683843;83;20996;-81
2021/07/19 00:19:05;;;;;;;8.83;5.15;;;;;;;16.21;70.38;101142.45;1683425;84;22548;-81
2021/07/19 00:21:31;;;;;;;8.63;4.65;;;;;;;16.19;70.46;101142.88;1671402;85;21535;-81
2021/07/19 00:23:59;;;;;;;10.82;4.70;;;;;;;16.19;70.52;101142.00;1671254;85;20965;-81
2021/07/19 00:26:26;;;;;;;13.58;4.78;;;;;;;16.18;70.54;101140.21;1682329;84;21079;-81
2021/07/19 00:28:56;;;;;;;13.50;5.67;;;;;;;16.19;70.61;101142.88;1676059;85;21028;-81
2021/07/19 00:31:21;;;;;;;12.13;4.80;;;;;;;16.23;70.77;101142.47;1677486;85;21436;-81
2021/07/19 00:33:48;;;;;;;12.93;5.58;;;;;;;16.30;70.91;101154.94;1675848;85;21751;-81
2021/07/19 00:36:15;;;;;;;15.55;5.17;;;;;;;16.37;70.89;101144.81;1671049;85;21037;-81
2021/07/19 00:38:42;;;;;;;13.78;5.72;;;;;;;16.43;70.86;101146.63;1679838;84;21239;-81
2021/07/19 00:41:08;;;;;;;14.03;5.53;;;;;;;16.47;70.83;101143.98;1671160;85;21000;-81
2021/07/19 00:43:35;;;;;;;12.35;5.37;;;;;;;16.51;70.73;101144.89;1674352;85;21768;-81
2021/07/19 00:46:03;;;;;;;13.48;5.20;;;;;;;16.51;70.72;101142.23;1671025;84;21028;-81
2021/07/19 00:48:30;;;;;;;13.03;4.92;;;;;;;16.55;70.77;101137.84;1668963;84;21514;-81
2021/07/19 00:50:57;;;;;;;11.95;4.58;;;;;;;16.61;70.82;101140.52;1649940;85;21108;-81
2021/07/19 00:53:24;;;;;;;10.80;4.55;;;;;;;16.66;70.76;101138.34;1670829;85;21016;-81
2021/07/19 00:55:51;;;;;;;12.43;4.60;;;;;;;16.71;70.65;101147.69;1673130;84;21784;-81
2021/07/19 00:58:18;;;;;;;9.93;4.28;;;;;;;16.71;70.58;101149.91;1670744;85;21566;-81
2021/07/19 01:00:48;;;;;;;11.08;4.37;;;;;;;16.71;70.58;101151.23;1671259;85;21063;-81
2021/07/19 01:03:15;;;;;;;11.68;4.20;;;;;;;16.71;70.54;101153.02;1673087;84;21064;-81
2021/07/19 01:05:42;;;;;;;12.15;4.95;;;;;;;16.71;70.57;101151.68;1671146;84;21063;-81
2021/07/19 01:08:09;;;;;;;10.72;4.55;;;;;;;16.70;70.52;101153.88;1673037;84;21777;-81
2021/07/19 01:10:37;;;;;;;13.45;4.35;;;;;;;16.70;70.59;101155.20;1670943;84;21521;-81
2021/07/19 01:13:06;;;;;;;9.08;4.15;;;;;;;16.69;70.62;101147.68;1667783;85;21517;-82
2021/07/19 01:15:36;;;;;;;9.83;4.90;;;;;;;16.68;70.67;101145.89;1669822;84;21083;-82
2021/07/19 01:18:04;;;;;;;11.28;4.33;;;;;;;16.70;70.77;101149.89;1671186;84;21561;-81
2021/07/19 01:20:39;;;;;;;12.88;5.22;;;;;;;16.71;70.87;101154.34;1670864;85;22678;-81
2021/07/19 01:23:58;;;;;;;11.80;4.55;;;;;;;16.73;70.81;101149.92;1665327;84;21044;-81
2021/07/19 01:26:59;;;;;;;11.73;4.35;;;;;;;16.73;70.81;101157.89;1706712;82;20972;-82
2021/07/19 01:29:27;;;;;;;13.15;4.70;;;;;;;16.76;71.03;101160.58;1660984;85;21067;-82
2021/07/19 01:31:54;;;;;;;11.08;4.53;;;;;;;16.85;71.19;101163.75;1672134;85;21032;-82
2021/07/19 01:34:24;;;;;;;16.20;5.05;;;;;;;16.94;71.09;101160.27;1674164;85;21808;-82
2021/07/19 01:36:58;;;;;;;9.45;4.37;;;;;;;16.99;70.99;101149.22;1675407;85;21552;-83
2021/07/19 01:39:26;;;;;;;9.93;4.60;;;;;;;17.04;70.97;101152.34;1679412;84;21102;-82
2021/07/19 01:41:54;;;;;;;12.50;4.72;;;;;;;17.13;70.90;101158.58;1682403;84;21566;-82
2021/07/19 01:44:22;;;;;;;11.20;4.37;;;;;;;17.20;70.87;101159.06;1658106;83;46223;-82
2021/07/19 01:46:49;;;;;;;11.22;4.03;;;;;;;17.25;70.70;101152.88;1683109;85;21258;-82
2021/07/19 01:49:16;;;;;;;12.70;4.58;;;;;;;17.31;70.69;101148.47;1684505;84;21029;-82
2021/07/19 01:51:44;;;;;;;14.58;5.15;;;;;;;17.35;70.58;101149.80;1660975;85;21063;-83
2021/07/19 01:54:10;;;;;;;12.85;4.70;;;;;;;17.38;70.58;101145.83;1683427;85;21044;-82
2021/07/19 01:56:38;;;;;;;8.70;4.33;;;;;;;17.42;70.53;101149.39;1683234;83;21589;-83
2021/07/19 01:59:05;;;;;;;12.10;4.53;;;;;;;17.42;70.46;101145.41;1702897;83;21866;-82
2021/07/19 02:01:32;;;;;;;9.25;4.72;;;;;;;17.43;70.45;101150.70;1704290;84;21518;-82
2021/07/19 02:03:59;;;;;;;12.50;4.65;;;;;;;17.43;70.47;101153.81;1699524;83;20969;-82
2021/07/19 02:06:26;;;;;;;14.25;4.50;;;;;;;17.42;70.36;101154.72;1680219;84;21020;-82
2021/07/19 02:08:55;;;;;;;9.83;4.85;;;;;;;17.37;70.31;101157.34;1700872;84;21028;-82
2021/07/19 02:11:27;;;;;;;7.17;4.20;;;;;;;17.32;70.31;101156.43;1675382;85;21817;-83
2021/07/19 02:13:54;;;;;;;16.52;5.08;;;;;;;17.25;70.39;101155.98;1700291;84;21032;-82
2021/07/19 02:16:22;;;;;;;10.65;4.40;;;;;;;17.16;70.42;101155.95;1700648;84;21086;-82
2021/07/19 02:18:49;;;;;;;11.35;5.00;;;;;;;17.08;70.55;101155.47;1700708;84;21035;-82
2021/07/19 02:21:19;;;;;;;11.33;4.47;;;;;;;17.05;70.71;101151.45;1699891;84;21005;-83
2021/07/19 02:23:44;;;;;;;10.50;5.60;;;;;;;17.04;70.83;101153.68;1700241;84;22057;-82
2021/07/19 02:26:11;;;;;;;10.38;4.50;;;;;;;17.03;70.91;101162.52;1641449;84;21024;-83
2021/07/19 02:28:38;;;;;;;12.98;4.87;;;;;;;17.06;71.02;101158.56;1699115;84;21498;-82
2021/07/19 02:31:06;;;;;;;12.60;4.72;;;;;;;17.12;71.09;101159.45;1680338;83;21000;-82
2021/07/19 02:33:35;;;;;;;9.98;4.80;;;;;;;17.16;71.06;101162.59;1705155;83;21008;-82
2021/07/19 02:36:02;;;;;;;10.88;4.22;;;;;;;17.23;71.08;101156.39;1684620;84;21861;-82
2021/07/19 02:38:29;;;;;;;10.15;4.67;;;;;;;17.30;70.99;101160.86;1648162;84;21040;-82
2021/07/19 02:40:55;;;;;;;9.78;4.20;;;;;;;17.34;70.86;101158.66;1692337;84;21541;-82
2021/07/19 02:43:23;;;;;;;9.28;4.70;;;;;;;17.39;70.78;101164.01;1702508;83;21596;-82
2021/07/19 02:45:53;;;;;;;10.38;4.20;;;;;;;17.43;70.63;101160.02;1700532;83;21167;-82
2021/07/19 02:48:21;;;;;;;10.38;4.53;;;;;;;17.46;70.54;101158.71;1700906;83;21775;-82
2021/07/19 02:50:49;;;;;;;6.92;4.28;;;;;;;17.51;70.43;101162.70;1700951;84;21486;-82
2021/07/19 02:53:17;;;;;;;17.25;5.90;;;;;;;17.55;70.30;101160.94;1700774;84;21051;-82
2021/07/19 02:55:45;;;;;;;13.10;4.90;;;;;;;17.54;70.14;101163.17;1693434;83;21566;-82
2021/07/19 02:58:15;;;;;;;13.90;4.42;;;;;;;17.47;70.00;101164.50;1700358;83;21135;-82
2021/07/19 03:00:41;;;;;;;9.68;3.98;;;;;;;17.42;69.88;101172.89;1685444;83;21749;-82
2021/07/19 03:03:11;;;;;;;9.45;4.12;;;;;;;17.37;69.92;101175.97;1700770;83;20957;-83
2021/07/19 03:05:40;;;;;;;11.12;4.35;;;;;;;17.30;69.91;101180.81;1679869;84;21031;-83
2021/07/19 03:08:06;;;;;;;13.75;4.28;;;;;;;17.24;69.98;101183.01;1700361;83;21501;-82
2021/07/19 03:10:34;;;;;;;7.65;3.90;;;;;;;17.23;70.10;101183.91;1671117;85;21505;-82
2021/07/19 03:13:05;;;;;;;13.20;3.83;;;;;;;17.22;70.15;101185.23;1673314;85;21791;-82
2021/07/19 03:15:32;;;;;;;10.15;3.95;;;;;;;17.22;70.17;101190.09;1681509;84;21016;-82
2021/07/19 03:18:05;;;;;;;11.53;4.30;;;;;;;17.24;70.22;101190.99;1683927;83;21107;-82
2021/07/19 03:20:36;;;;;;;15.53;5.15;;;;;;;17.31;70.28;101188.38;1682211;83;21173;-80
2021/07/19 03:23:02;;;;;;;13.13;4.47;;;;;;;17.40;70.33;101189.30;1682660;84;21024;-80
2021/07/19 03:25:29;;;;;;;11.28;4.10;;;;;;;17.51;70.25;101190.65;1670570;85;21901;-81
2021/07/19 03:27:56;;;;;;;10.38;3.92;;;;;;;17.65;70.20;101190.27;1669112;86;21056;-80
2021/07/19 03:30:23;;;;;;;10.20;3.95;;;;;;;17.79;70.01;101194.31;1674790;85;21640;-81
2021/07/19 03:32:50;;;;;;;13.48;4.17;;;;;;;17.94;69.86;101197.45;1675600;84;21035;-81
2021/07/19 03:35:18;;;;;;;9.18;4.20;;;;;;;18.09;69.77;101189.92;1670174;84;21554;-81
2021/07/19 03:37:47;;;;;;;19.50;5.00;;;;;;;18.35;69.71;101197.94;1669081;85;21803;-80
2021/07/19 03:40:14;;;;;;;10.35;3.90;;;;;;;18.60;69.22;101197.92;1680365;85;21506;-80
2021/07/19 03:42:41;;;;;;;11.53;4.55;;;;;;;18.70;68.74;101193.04;1682293;85;21024;-81
2021/07/19 03:45:12;;;;;;;12.82;4.12;;;;;;;18.88;68.85;101190.80;1683326;85;21090;-80
2021/07/19 03:47:40;;;;;;;11.18;3.83;;;;;;;19.36;68.81;101188.88;1682797;85;21087;-81
2021/07/19 03:50:08;;;;;;;12.18;3.42;;;;;;;20.29;69.16;101187.91;1704409;84;21230;-81
2021/07/19 03:52:38;;;;;;;13.40;3.85;;;;;;;21.69;68.92;101185.52;1703247;83;21060;-81
2021/07/19 03:55:14;;;;;;;10.35;3.42;;;;;;;23.17;67.56;101191.12;1692974;84;21043;-82
2021/07/19 03:57:42;;;;;;;8.48;3.33;;;;;;;24.51;65.38;101184.02;1704160;83;21027;-81
2021/07/19 04:00:11;;;;;;;13.75;4.00;;;;;;;25.66;63.39;101177.23;1701632;84;21512;-82
2021/07/19 04:02:39;;;;;;;14.00;4.05;;;;;;;26.60;61.56;101183.20;1698637;84;21561;-81
2021/07/19 04:05:09;;;;;;;14.80;4.03;;;;;;;27.53;59.95;101176.17;1700859;83;20946;-81
2021/07/19 04:07:38;;;;;;;9.10;3.70;;;;;;;28.40;58.36;101183.07;1676719;84;21479;-82
2021/07/19 04:10:09;;;;;;;8.28;3.25;;;;;;;29.21;56.54;101183.19;1702557;83;21067;-82
2021/07/19 04:12:36;;;;;;;13.58;4.03;;;;;;;29.87;54.77;101179.20;1695579;83;21430;-82
2021/07/19 04:15:04;;;;;;;10.43;3.87;;;;;;;30.58;53.68;101177.41;1700833;84;21729;-82
2021/07/19 04:17:31;;;;;;;9.63;3.52;;;;;;;31.25;52.11;101177.98;1701456;83;21036;-82
2021/07/19 04:19:59;;;;;;;9.28;3.35;;;;;;;31.84;50.54;101179.22;1700648;84;21119;-82
2021/07/19 04:22:26;;;;;;;11.93;4.05;;;;;;;32.38;49.10;101179.29;1691936;84;21072;-82
2021/07/19 04:24:52;;;;;;;9.70;3.47;;;;;;;32.85;47.86;101178.30;1642127;87;21079;-84
2021/07/19 04:27:19;;;;;;;7.85;3.70;;;;;;;33.30;46.72;101180.00;1683774;83;21748;-85
2021/07/19 04:29:51;;;;;;;7.55;3.37;;;;;;;33.72;45.39;101180.57;1720735;82;21023;-85
2021/07/19 04:32:19;;;;;;;9.05;3.77;;;;;;;34.15;44.60;101181.81;1720361;81;21072;-83
2021/07/19 04:34:47;;;;;;;6.78;3.22;;;;;;;34.69;43.67;101181.78;1680893;83;21579;-84
2021/07/19 04:37:14;;;;;;;11.20;3.45;;;;;;;35.32;42.38;101177.81;1697088;84;21074;-84
2021/07/19 04:39:42;;;;;;;7.53;3.20;;;;;;;35.66;41.44;101182.17;1701275;83;21178;-85
2021/07/19 04:42:09;;;;;;;13.38;3.60;;;;;;;36.07;40.38;101179.09;1686167;84;21577;-84
2021/07/19 04:44:37;;;;;;;16.17;4.00;;;;;;;36.42;39.43;101185.14;1682170;84;20970;-84
2021/07/19 04:47:04;;;;;;;10.03;3.65;;;;;;;36.76;38.77;101191.62;1702127;84;21069;-85
2021/07/19 04:49:43;;;;;;;7.62;3.40;;;;;;;37.20;37.93;101189.61;1696143;84;21084;-88
2021/07/19 04:52:10;;;;;;;6.90;3.17;;;;;;;37.61;36.98;101185.34;1680111;83;22145;-89
2021/07/19 04:54:38;;;;;;;10.53;3.60;;;;;;;37.94;35.87;101185.81;1702396;84;21057;-91
2021/07/19 04:57:08;;;;;;;8.20;3.22;;;;;;;38.18;35.20;101189.77;1702123;84;21081;-83
2021/07/19 04:59:40;;;;;;;8.75;3.17;;;;;;;38.54;34.81;101182.14;1702478;83;21029;-83
2021/07/19 05:02:12;;;;;;;12.03;4.35;;;;;;;38.83;34.00;101185.07;1702192;84;21554;-92
2021/07/19 05:05:23;;;;;;;;;;;;;;;39.03;32.95;101185.23;1702257;84;21722;-91
2021/07/19 05:08:09;;;;;;;6.17;3.22;;;;;;;39.14;32.36;101178.74;1701455;83;20245;-91
2021/07/19 05:10:50;;;;;;;10.15;3.62;;;;;;;39.29;31.49;101174.64;1581396;90;21071;-83
2021/07/19 05:13:16;;;;;;;6.87;3.45;;;;;;;39.36;30.88;101175.80;1568714;89;21075;-83
2021/07/19 05:15:44;;;;;;;7.62;3.40;;;;;;;39.27;30.35;101178.04;1530922;92;21564;-83
2021/07/19 05:18:11;;;;;;;6.80;3.08;;;;;;;39.30;30.50;101177.73;1543248;91;21891;-83
2021/07/19 05:20:41;;;;;;;13.22;3.50;;;;;;;39.49;29.65;101171.97;1551186;92;21117;-83
2021/07/19 05:23:06;;;;;;;15.38;3.80;;;;;;;39.41;29.36;101172.64;1569076;91;21127;-84
2021/07/19 05:25:34;;;;;;;8.85;3.17;;;;;;;39.58;29.14;101172.52;1550751;92;21667;-84
2021/07/19 05:28:10;;;;;;;24.52;4.72;;;;;;;39.72;28.58;101173.50;1567867;91;21143;-84
2021/07/19 05:30:40;;;;;;;10.32;3.35;;;;;;;39.82;28.34;101174.89;1550800;92;21842;-84
2021/07/19 05:33:08;;;;;;;5.83;3.00;;;;;;;39.70;27.85;101174.64;1567900;91;21128;-83
2021/07/19 05:35:35;;;;;;;12.75;3.27;;;;;;;39.75;27.46;101170.95;1580074;90;21805;-83
2021/07/19 05:38:03;;;;;;;7.15;3.27;;;;;;;39.89;27.68;101176.10;1556849;92;21563;-84
2021/07/19 05:40:31;;;;;;;15.28;3.45;;;;;;;40.47;27.50;101179.91;1565675;91;21006;-83
2021/07/19 05:42:59;;;;;;;5.92;3.12;;;;;;;39.81;26.28;101182.30;1597760;88;22673;-84
2021/07/19 05:45:26;;;;;;;13.60;3.98;;;;;;;37.57;26.28;101176.99;1595227;88;21556;-83
2021/07/19 05:47:54;;;;;;;12.90;4.05;;;;;;;35.23;27.03;101182.98;1683272;84;21061;-83
2021/07/19 05:50:20;;;;;;;7.53;3.12;;;;;;;33.47;28.00;101179.41;1699485;84;21038;-83
2021/07/19 05:52:47;;;;;;;16.42;3.87;;;;;;;32.11;29.12;101182.20;1672598;85;21108;-83
2021/07/19 05:55:14;;;;;;;9.98;3.90;;;;;;;30.94;29.92;101180.53;1679023;85;21834;-83
2021/07/19 05:57:41;;;;;;;26.25;4.85;;;;;;;29.93;30.91;101183.83;1684789;85;21056;-83
2021/07/19 06:00:14;;;;;;;27.80;5.33;;;;;;;29.15;31.96;101184.34;1685352;85;21132;-83
2021/07/19 06:02:39;;;;;;;15.40;4.45;;;;;;;28.71;32.71;101193.08;1694631;84;21060;-84
2021/07/19 06:05:06;;;;;;;13.08;4.47;;;;;;;28.20;33.33;101189.31;1702123;83;21021;-83
2021/07/19 06:07:34;;;;;;;7.35;4.12;;;;;;;27.76;34.06;101193.34;1671027;84;21782;-83
2021/07/19 06:10:02;;;;;;;9.33;4.22;;;;;;;27.47;34.67;101187.71;1685034;84;21092;-84
2021/07/19 06:12:29;;;;;;;21.73;4.95;;;;;;;27.25;35.21;101196.62;1685003;85;21111;-83
2021/07/19 06:14:56;;;;;;;9.63;3.92;;;;;;;27.14;35.70;101192.95;1677443;85;21060;-83
2021/07/19 06:17:22;;;;;;;9.95;4.50;;;;;;;27.13;36.13;101192.53;1685007;85;21028;-83
2021/07/19 06:19:49;;;;;;;9.13;4.17;;;;;;;27.15;36.25;101187.08;1685782;84;21669;-83
2021/07/19 06:22:16;;;;;;;11.53;4.08;;;;;;;27.06;36.43;101192.81;1686262;84;21008;-83
2021/07/19 06:24:43;;;;;;;9.25;4.25;;;;;;;26.82;36.64;101194.11;1685895;83;21503;-83
2021/07/19 06:27:11;;;;;;;11.90;4.65;;;;;;;26.38;37.03;101197.87;1685544;85;21075;-83
2021/07/19 06:29:37;;;;;;;9.65;4.67;;;;;;;26.09;37.52;101200.17;1684922;85;21135;-83
2021/07/19 06:32:05;;;;;;;14.40;10.63;;;;;;;25.73;37.70;101198.59;1686586;85;21329;-83
2021/07/19 06:34:32;;;;;;;11.95;4.97;;;;;;;25.19;38.15;101198.80;1684637;85;21155;-83
2021/07/19 06:36:58;;;;;;;14.53;4.90;;;;;;;24.89;38.67;101199.64;1681894;85;21009;-83
2021/07/19 06:39:25;;;;;;;9.48;5.55;;;;;;;24.65;39.21;101203.44;1680659;83;21099;-83
2021/07/19 06:41:52;;;;;;;13.62;5.08;;;;;;;24.33;39.61;101201.07;1685631;84;21072;-83
2021/07/19 06:44:19;;;;;;;9.63;5.25;;;;;;;24.12;40.14;101207.87;1681002;84;21758;-83
2021/07/19 06:46:46;;;;;;;11.93;4.65;;;;;;;24.11;40.63;101207.42;1680298;84;21119;-83
2021/07/19 06:49:13;;;;;;;9.38;4.40;;;;;;;24.25;41.00;101201.27;1684842;85;21143;-83
2021/07/19 06:51:39;;;;;;;9.73;4.75;;;;;;;24.49;41.06;101204.23;1681262;83;21096;-83
2021/07/19 06:54:06;;;;;;;9.23;5.40;;;;;;;24.68;41.09;101205.14;1687366;84;21487;-83
2021/07/19 06:56:33;;;;;;;12.07;5.17;;;;;;;24.77;40.98;101203.56;1685259;85;21760;-83
2021/07/19 06:59:00;;;;;;;9.93;4.58;;;;;;;24.77;41.16;101208.94;1679612;84;21415;-83
2021/07/19 07:01:27;;;;;;;19.12;5.42;;;;;;;24.73;41.10;101211.30;1677129;84;21025;-83
2021/07/19 07:03:53;;;;;;;18.50;5.03;;;;;;;24.69;41.29;101209.63;1685874;84;21550;-83
2021/07/19 07:06:20;;;;;;;17.62;4.90;;;;;;;24.59;41.38;101209.86;1675081;85;21093;-83
2021/07/19 07:08:47;;;;;;;14.28;4.60;;;;;;;24.41;41.50;101207.60;1687523;84;21818;-83
2021/07/19 07:11:14;;;;;;;6.28;3.85;;;;;;;24.25;41.70;101207.98;1689342;83;21108;-83
2021/07/19 07:13:41;;;;;;;7.72;4.37;;;;;;;24.14;41.85;101211.41;1684976;85;21136;-83
2021/07/19 07:16:09;;;;;;;11.70;4.97;;;;;;;24.03;42.04;101212.99;1683585;84;21056;-83
2021/07/19 07:18:35;;;;;;;8.93;5.00;;;;;;;23.94;42.21;101208.30;1687207;84;21585;-83
2021/07/19 07:21:02;;;;;;;11.53;4.87;;;;;;;23.97;42.42;101214.92;1686174;84;21759;-83
2021/07/19 07:23:29;;;;;;;6.95;4.28;;;;;;;24.03;42.44;101214.80;1675934;83;21523;-83
2021/07/19 07:25:56;;;;;;;8.35;4.50;;;;;;;24.02;42.41;101213.90;1681689;84;21045;-83
2021/07/19 07:28:23;;;;;;;12.55;4.85;;;;;;;24.04;42.70;101209.84;1674836;85;21093;-83
2021/07/19 07:30:50;;;;;;;7.03;3.77;;;;;;;24.30;43.05;101206.98;1681009;83;21642;-83
2021/07/19 07:33:17;;;;;;;11.70;4.42;;;;;;;24.54;42.43;101212.25;1686097;85;22638;-83
2021/07/19 07:35:46;;;;;;;11.68;5.28;;;;;;;24.63;42.39;101212.89;1677190;85;21053;-83
2021/07/19 07:38:13;;;;;;;8.23;4.40;;;;;;;24.77;42.19;101218.36;1684380;85;21526;-83
2021/07/19 07:40:39;;;;;;;8.43;4.67;;;;;;;24.90;41.94;101210.84;1685143;85;21024;-83
2021/07/19 07:43:06;;;;;;;8.73;4.50;;;;;;;25.03;41.70;101210.92;1685112;85;20958;-83
2021/07/19 07:45:33;;;;;;;11.00;4.92;;;;;;;25.10;41.63;101211.66;1682115;84;21764;-83
2021/07/19 07:47:59;;;;;;;9.10;4.67;;;;;;;25.19;41.51;101212.27;1679589;85;21009;-83
2021/07/19 07:50:26;;;;;;;16.55;5.30;;;;;;;25.27;41.26;101208.03;1681216;84;21052;-83
2021/07/19 07:52:53;;;;;;;9.68;5.33;;;;;;;25.29;41.45;101206.66;1688319;84;21144;-83
2021/07/19 07:55:20;;;;;;;8.75;5.42;;;;;;;25.33;41.36;101200.23;1684960;85;21099;-83
2021/07/19 07:57:47;;;;;;;12.78;4.95;;;;;;;25.45;40.95;101196.29;1685108;85;22031;-83
2021/07/19 08:00:17;;;;;;;12.40;5.05;;;;;;;25.67;41.07;101196.53;1685125;85;21092;-83
2021/07/19 08:02:44;;;;;;;6.58;4.20;;;;;;;25.99;40.68;101191.50;1685040;83;21017;-83
2021/07/19 08:05:11;;;;;;;8.58;4.60;;;;;;;26.29;40.49;101190.95;1685110;85;21099;-83
2021/07/19 08:07:38;;;;;;;7.60;4.83;;;;;;;26.55;40.25;101192.77;1685219;85;21049;-83
2021/07/19 08:10:07;;;;;;;8.55;4.55;;;;;;;26.75;39.76;101197.98;1689418;85;21396;-83
2021/07/19 08:12:34;;;;;;;8.03;4.87;;;;;;;26.78;39.37;101189.76;1685926;83;21088;-83
2021/07/19 08:15:03;;;;;;;23.92;8.85;;;;;;;26.64;38.96;101193.44;1679514;83;21079;-84
2021/07/19 08:17:31;;;;;;;12.20;5.60;;;;;;;26.61;39.10;101191.70;1680188;85;21445;-83
2021/07/19 08:19:58;;;;;;;9.20;7.20;;;;;;;26.64;39.12;101196.14;1683054;84;21514;-83
2021/07/19 08:22:26;;;;;;;9.15;4.95;;;;;;;26.69;38.98;101190.98;1699176;83;21781;-83
2021/07/19 08:24:52;;;;;;;12.07;5.25;;;;;;;26.77;39.04;101194.77;1687128;84;21584;-83
2021/07/19 08:27:20;;;;;;;10.63;4.53;;;;;;;26.82;38.78;101194.11;1687946;83;21052;-83
2021/07/19 08:29:49;;;;;;;7.97;4.28;;;;;;;26.68;38.78;101200.48;1685055;85;21766;-83
2021/07/19 08:32:16;;;;;;;14.00;5.28;;;;;;;26.62;38.84;101199.36;1678263;85;21045;-83
2021/07/19 08:34:45;;;;;;;9.40;4.37;;;;;;;26.58;38.87;101203.95;1672905;84;21825;-83
2021/07/19 08:37:13;;;;;;;7.60;4.62;;;;;;;26.57;38.83;101205.73;1683070;85;21062;-83
2021/07/19 08:39:41;;;;;;;10.15;4.97;;;;;;;26.57;38.99;101206.22;1675247;84;21029;-83
2021/07/19 08:42:12;;;;;;;7.03;4.58;;;;;;;26.63;38.90;101209.20;1685209;85;21064;-83
2021/07/19 08:44:39;;;;;;;5.78;4.15;;;;;;;26.52;38.87;101205.04;1681468;85;21033;-83
2021/07/19 08:47:10;;;;;;;9.80;4.50;;;;;;;26.44;38.89;101199.00;1684796;85;22676;-83
2021/07/19 08:49:37;;;;;;;10.13;4.30;;;;;;;26.41;38.98;101200.48;1679856;84;21013;-82
2021/07/19 08:52:05;;;;;;;17.92;5.00;;;;;;;26.42;39.12;101204.05;1684252;85;21508;-82
2021/07/19 08:54:37;;;;;;;11.00;4.53;;;;;;;26.34;38.63;101201.61;1684290;84;21014;-82
2021/07/19 08:57:05;;;;;;;7.95;4.80;;;;;;;26.26;38.91;101199.61;1681845;85;21033;-83
2021/07/19 08:59:32;;;;;;;9.60;5.37;;;;;;;26.40;38.90;101197.34;1679170;83;21738;-83
2021/07/19 09:02:01;;;;;;;7.05;4.28;;;;;;;26.46;38.61;101205.70;1681421;85;21555;-83
2021/07/19 09:04:27;;;;;;;6.00;4.53;;;;;;;26.43;38.40;101205.35;1682083;84;21507;-83
2021/07/19 09:06:54;;;;;;;9.25;4.80;;;;;;;26.57;38.50;101200.81;1684612;85;21053;-83
2021/07/19 09:09:29;;;;;;;7.80;4.35;;;;;;;26.67;38.34;101200.96;1685243;85;21048;-83
2021/07/19 09:11:58;;;;;;;6.42;4.40;;;;;;;26.71;38.41;101201.70;1685480;83;21841;-83
2021/07/19 09:14:25;;;;;;;7.78;4.15;;;;;;;26.73;38.35;101201.22;1684934;85;21586;-82
2021/07/19 09:16:52;;;;;;;6.33;4.10;;;;;;;26.64;38.44;101209.16;1685545;85;21033;-83
2021/07/19 09:19:21;;;;;;;6.22;3.55;;;;;;;26.49;38.56;101202.44;1685174;83;21045;-83
2021/07/19 09:21:51;;;;;;;9.78;5.17;;;;;;;26.26;38.69;101203.22;1684095;85;21048;-83
2021/07/19 09:24:20;;;;;;;10.05;4.83;;;;;;;25.94;39.09;101203.80;1684037;85;21702;-83
2021/07/19 09:26:48;;;;;;;13.43;4.42;;;;;;;25.63;39.31;101199.78;1683722;85;21091;-83
2021/07/19 09:29:18;;;;;;;6.28;5.03;;;;;;;25.44;39.67;101205.33;1684782;83;21056;-83
2021/07/19 09:51:33;;;;;;;17.30;5.25;;;;;;;26.09;40.01;101202.87;1683802;83;20997;-82
2021/07/19 09:57:00;;;;;;;6.92;4.83;;;;;;;26.86;39.98;101190.83;1716635;83;21075;-82
2021/07/19 09:59:25;;;;;;;20.75;5.33;;;;;;;27.05;39.27;101194.65;1720296;82;21098;-82
2021/07/19 10:01:52;;;;;;;7.40;5.08;;;;;;;26.99;38.81;101196.67;1695531;84;21159;-82
2021/07/19 10:04:21;;;;;;;8.00;5.42;;;;;;;26.74;38.75;101197.56;1680228;84;21721;-82
2021/07/19 10:07:01;;;;;;;8.30;4.60;;;;;;;26.52;38.67;101200.98;1679567;84;21574;-82
2021/07/19 10:09:28;;;;;;;9.85;5.45;;;;;;;26.27;38.97;101197.34;1682791;84;21077;-82
2021/07/19 10:11:57;;;;;;;9.13;3.87;;;;;;;26.18;39.18;101195.83;1685162;85;21538;-82
2021/07/19 10:14:29;;;;;;;5.47;3.62;;;;;;;26.07;38.72;101196.20;1712997;83;21011;-82
2021/07/19 10:16:59;;;;;;;5.75;3.60;;;;;;;26.10;38.78;101193.38;1715423;82;22539;-82
2021/07/19 10:19:27;;;;;;;6.97;4.75;;;;;;;26.21;38.67;101194.39;1715050;83;21019;-82
2021/07/19 10:21:55;;;;;;;6.78;3.40;;;;;;;26.34;38.39;101192.16;1682745;84;21164;-82
2021/07/19 10:24:22;;;;;;;8.45;3.83;;;;;;;26.43;38.07;101200.39;1687439;85;21087;-82
2021/07/19 10:26:51;;;;;;;8.95;3.92;;;;;;;26.58;38.20;101196.72;1689749;84;21040;-82
2021/07/19 10:29:18;;;;;;;7.55;3.83;;;;;;;26.75;38.00;101200.69;1685276;85;21789;-83
2021/07/19 10:31:58;;;;;;;6.20;3.67;;;;;;;26.79;37.86;101199.64;1678017;85;21013;-82
2021/07/19 10:34:25;;;;;;;7.25;3.72;;;;;;;26.75;37.82;101198.86;1667781;85;21025;-82
2021/07/19 10:39:37;;;;;;;11.57;4.97;;;;;;;26.29;38.20;101206.27;1670506;83;21033;-82
2021/07/19 10:42:10;;;;;;;10.65;5.08;;;;;;;25.99;38.57;101203.16;1692940;84;21784;-82
2021/07/19 10:44:39;;;;;;;;;;;;;;;25.79;38.66;101200.21;1685364;84;20994;-82
2021/07/19 10:47:22;;;;;;;7.87;4.05;;;;;;;25.55;38.72;101198.67;1672610;84;20140;-82
2021/07/19 10:50:04;;;;;;;10.65;3.75;;;;;;;25.25;39.00;101203.63;1673003;85;21045;-83
2021/07/19 10:52:44;;;;;;;9.90;3.62;;;;;;;24.93;39.47;101204.91;1684803;84;21057;-84
2021/07/19 10:55:15;;;;;;;23.15;4.15;;;;;;;24.75;39.79;101205.41;1682242;84;22570;-83
2021/07/19 10:57:47;;;;;;;6.92;3.42;;;;;;;24.64;40.17;101201.21;1672533;84;21040;-83
2021/07/19 11:00:16;;;;;;;7.12;3.22;;;;;;;24.58;40.53;101200.47;1688356;84;21569;-83
2021/07/19 11:02:43;;;;;;;10.08;3.85;;;;;;;24.63;40.65;101198.55;1677284;84;21546;-83
2021/07/19 11:05:13;;;;;;;14.45;3.62;;;;;;;24.77;40.88;101197.70;1677537;84;21428;-83
2021/07/19 11:07:42;;;;;;;6.72;2.92;;;;;;;24.96;40.79;101191.38;1677187;84;21974;-83
2021/07/19 11:10:19;;;;;;;23.52;5.47;;;;;;;25.19;40.42;101186.67;1687782;83;20973;-83
2021/07/19 11:12:54;;;;;;;5.72;3.50;;;;;;;25.37;40.44;101183.92;1685773;85;21021;-83
2021/07/19 11:15:24;;;;;;;13.13;3.35;;;;;;;25.63;40.17;101184.95;1684858;85;21118;-83
2021/07/19 11:17:51;;;;;;;8.00;2.95;;;;;;;25.79;39.83;101181.34;1682228;84;21052;-84
2021/07/19 11:20:18;;;;;;;16.50;3.62;;;;;;;25.80;39.47;101183.95;1680627;84;21870;-83
2021/07/19 11:22:45;;;;;;;7.12;3.25;;;;;;;25.65;39.58;101187.14;1676494;85;20985;-83
2021/07/19 11:25:18;;;;;;;9.43;3.25;;;;;;;25.65;39.75;101189.83;1685179;85;21568;-83
2021/07/19 11:27:49;;;;;;;9.18;3.17;;;;;;;25.79;39.83;101193.00;1708487;83;21003;-83
2021/07/19 11:30:25;;;;;;;10.28;3.33;;;;;;;26.01;39.66;101194.16;1715613;83;21559;-84
2021/07/19 11:32:52;;;;;;;12.63;2.87;;;;;;;26.32;39.57;101189.52;1717506;83;21757;-83
2021/07/19 11:35:25;;;;;;;8.03;3.27;;;;;;;26.68;39.50;101189.69;1717263;83;21040;-83
2021/07/19 11:37:57;;;;;;;11.90;3.25;;;;;;;26.90;39.15;101186.63;1714641;83;21506;-83
2021/07/19 11:40:31;;;;;;;6.73;3.70;;;;;;;27.07;38.97;101182.44;1720652;83;20997;-84
2021/07/19 11:43:15;;;;;;;5.20;2.75;;;;;;;27.20;38.71;101181.03;1695614;84;21097;-83
2021/07/19 11:45:43;;;;;;;7.75;3.10;;;;;;;27.27;38.62;101177.20;1687380;82;22917;-84
2021/07/19 11:48:10;;;;;;;8.35;4.22;;;;;;;27.18;38.49;101178.86;1660442;84;21019;-84
2021/07/19 11:50:37;;;;;;;12.30;3.25;;;;;;;26.96;38.35;101180.13;1671640;85;21069;-84
2021/07/19 11:53:04;;;;;;;16.70;3.70;;;;;;;26.65;38.37;101182.55;1672811;85;21045;-83
2021/07/19 11:55:31;;;;;;;11.25;3.27;;;;;;;26.31;38.44;101180.11;1672449;84;21066;-83